Time;durP1;ratioP1;P1;durP2;ratioP2;P2;SDS_P1;SDS_P2;PMS_P1;PMS_P2;Temp;Humidity;BMP_temperature;BMP_pressure;BME280_temperature;BME280_humidity;BME280_pressure;Samples;Min_cycle;Max_cycle;Signal;HPM_P1;HPM_P2
2021/01/09 00:01:38;;;;;;;9.10;3.87;;;2.90;99.90;;;;;;5060167;28;20232;-67
2021/01/09 00:04:05;;;;;;;4.53;3.33;;;2.80;99.90;;;;;;5087362;28;20217;-67
2021/01/09 00:06:40;;;;;;;8.67;4.37;;;2.80;99.90;;;;;;5072807;28;20502;-67
2021/01/09 00:09:07;;;;;;;7.87;4.07;;;2.70;99.90;;;;;;5093525;28;20603;-67
2021/01/09 00:11:33;;;;;;;9.40;5.77;;;2.70;99.90;;;;;;5093433;28;20456;-68
2021/01/09 00:13:59;;;;;;;7.17;4.17;;;2.70;99.90;;;;;;5093755;28;20491;-68
2021/01/09 00:16:25;;;;;;;6.50;3.60;;;2.70;99.90;;;;;;5103236;28;20470;-67
2021/01/09 00:18:52;;;;;;;4.07;2.17;;;2.60;99.90;;;;;;5093890;28;20464;-67
2021/01/09 00:21:17;;;;;;;7.37;3.43;;;2.60;99.90;;;;;;5092061;28;20447;-67
2021/01/09 00:23:43;;;;;;;8.10;4.23;;;2.60;99.90;;;;;;5076097;28;20509;-68
2021/01/09 00:26:09;;;;;;;6.87;3.73;;;2.60;99.90;;;;;;5073726;28;20225;-67
2021/01/09 00:28:35;;;;;;;7.30;4.60;;;2.60;99.90;;;;;;5060613;28;20211;-67
2021/01/09 00:31:00;;;;;;;8.17;4.03;;;2.50;99.90;;;;;;5073106;28;20235;-67
2021/01/09 00:33:26;;;;;;;10.40;4.30;;;2.50;99.90;;;;;;5060680;28;20261;-67
2021/01/09 00:35:56;;;;;;;7.70;4.50;;;2.50;99.90;;;;;;5056202;28;20701;-67
2021/01/09 00:38:22;;;;;;;7.47;4.40;;;2.50;99.90;;;;;;5076244;28;20244;-68
2021/01/09 00:40:49;;;;;;;6.43;3.73;;;2.50;99.90;;;;;;5080697;27;20867;-67
2021/01/09 00:43:14;;;;;;;9.00;4.30;;;2.50;99.90;;;;;;5082826;27;20455;-68
2021/01/09 00:45:40;;;;;;;6.00;3.20;;;2.50;99.90;;;;;;5069289;28;20485;-67
2021/01/09 00:48:06;;;;;;;10.13;5.30;;;2.50;99.90;;;;;;5067964;28;20228;-68
2021/01/09 00:50:32;;;;;;;7.30;4.37;;;2.50;99.90;;;;;;5085577;28;20278;-68
2021/01/09 00:52:57;;;;;;;7.63;4.00;;;2.60;99.90;;;;;;5056022;28;20452;-67
2021/01/09 00:55:23;;;;;;;7.27;4.07;;;2.60;99.90;;;;;;5066944;28;20226;-67
2021/01/09 00:57:49;;;;;;;8.80;4.60;;;2.60;99.90;;;;;;5059576;28;20221;-67
2021/01/09 01:00:15;;;;;;;6.97;3.90;;;2.60;99.90;;;;;;5072659;28;20443;-67
2021/01/09 01:02:41;;;;;;;8.43;5.00;;;2.60;99.90;;;;;;5077362;27;20323;-68
2021/01/09 01:05:07;;;;;;;10.00;4.10;;;2.60;99.90;;;;;;5080039;28;20972;-68
2021/01/09 01:07:35;;;;;;;9.23;5.07;;;2.60;99.90;;;;;;5074544;28;20220;-67
2021/01/09 01:10:04;;;;;;;6.43;4.20;;;2.70;99.90;;;;;;5074711;28;20458;-68
2021/01/09 01:12:30;;;;;;;10.20;5.40;;;2.70;99.90;;;;;;5055739;28;20454;-67
2021/01/09 01:14:56;;;;;;;7.90;4.73;;;2.60;99.90;;;;;;5092222;28;20915;-67
2021/01/09 01:17:21;;;;;;;9.33;4.00;;;2.60;99.90;;;;;;5110063;28;20453;-67
2021/01/09 01:19:47;;;;;;;8.33;4.93;;;2.60;99.90;;;;;;5080373;28;20253;-68
2021/01/09 01:22:13;;;;;;;7.33;3.60;;;2.70;99.90;;;;;;5071576;28;20215;-68
2021/01/09 01:24:39;;;;;;;7.53;4.03;;;2.60;99.90;;;;;;5054411;28;20254;-67
2021/01/09 01:27:04;;;;;;;7.57;4.60;;;2.60;99.90;;;;;;5069079;28;20260;-67
2021/01/09 01:29:30;;;;;;;4.17;2.77;;;2.70;99.90;;;;;;5073670;28;20225;-67
2021/01/09 01:31:59;;;;;;;8.20;4.33;;;2.60;99.90;;;;;;5081677;27;20682;-68
2021/01/09 01:34:24;;;;;;;6.03;4.00;;;2.60;99.90;;;;;;5062799;27;20226;-67
2021/01/09 01:36:51;;;;;;;9.40;4.67;;;2.60;99.90;;;;;;5082307;28;20964;-67
2021/01/09 01:39:17;;;;;;;10.13;4.43;;;2.60;99.90;;;;;;5088155;27;20263;-67
2021/01/09 01:41:42;;;;;;;7.50;4.07;;;2.60;99.90;;;;;;5064395;28;20510;-67
2021/01/09 01:44:08;;;;;;;10.73;5.00;;;2.50;99.90;;;;;;5057890;28;20483;-67
2021/01/09 01:46:34;;;;;;;7.80;4.60;;;2.60;99.90;;;;;;5058283;28;20295;-69
2021/01/09 01:49:00;;;;;;;7.80;3.80;;;2.60;99.90;;;;;;5094892;27;20233;-69
2021/01/09 01:51:26;;;;;;;9.43;4.80;;;2.50;99.90;;;;;;5071073;28;20265;-68
2021/01/09 01:53:54;;;;;;;9.70;4.37;;;2.50;99.90;;;;;;5080866;28;20222;-67
2021/01/09 01:56:21;;;;;;;7.13;3.57;;;2.60;99.90;;;;;;5091110;28;20465;-67
2021/01/09 01:58:47;;;;;;;10.13;5.33;;;2.60;99.90;;;;;;5075067;28;21009;-67
2021/01/09 02:01:16;;;;;;;11.93;5.47;;;2.60;99.90;;;;;;5075187;28;20968;-67
2021/01/09 02:03:41;;;;;;;7.83;4.20;;;2.60;99.90;;;;;;5071704;28;21018;-67
2021/01/09 02:06:22;;;;;;;7.13;3.80;;;2.60;99.90;;;;;;5070334;28;20471;-67
2021/01/09 02:08:53;;;;;;;12.40;5.37;;;2.60;99.90;;;;;;5066368;28;20268;-67
2021/01/09 02:11:41;;;;;;;12.53;5.43;;;2.60;99.90;;;;;;5070973;28;20456;-67
2021/01/09 02:14:14;;;;;;;8.57;5.60;;;2.60;99.90;;;;;;5092026;28;20447;-68
2021/01/09 02:16:42;;;;;;;8.17;6.07;;;2.60;99.90;;;;;;5075128;28;20505;-67
2021/01/09 02:19:09;;;;;;;9.50;5.27;;;2.60;99.90;;;;;;5074851;28;20469;-67
2021/01/09 02:21:40;;;;;;;9.60;5.57;;;2.60;99.90;;;;;;5057693;27;20973;-68
2021/01/09 02:24:15;;;;;;;10.17;5.63;;;2.60;99.90;;;;;;5075229;28;20493;-67
2021/01/09 02:26:41;;;;;;;8.77;4.07;;;2.60;99.90;;;;;;5098996;28;20459;-68
2021/01/09 02:29:07;;;;;;;9.27;5.00;;;2.60;99.90;;;;;;5096201;28;20509;-67
2021/01/09 02:31:40;;;;;;;10.83;4.87;;;2.60;99.90;;;;;;5100860;28;20552;-68
2021/01/09 02:34:09;;;;;;;7.70;3.77;;;2.60;99.90;;;;;;5090149;28;20224;-67
2021/01/09 02:36:39;;;;;;;9.77;4.40;;;2.60;99.90;;;;;;5074600;28;20459;-67
2021/01/09 02:39:05;;;;;;;8.60;5.73;;;2.60;99.90;;;;;;5066533;28;20444;-67
2021/01/09 02:41:34;;;;;;;12.67;5.33;;;2.60;99.90;;;;;;5102464;28;20452;-67
2021/01/09 02:44:08;;;;;;;6.77;4.03;;;2.60;99.90;;;;;;5080101;28;20455;-67
2021/01/09 02:46:35;;;;;;;8.83;4.00;;;2.50;99.90;;;;;;5097322;27;21037;-67
2021/01/09 02:49:01;;;;;;;11.43;5.13;;;2.50;99.90;;;;;;5085713;27;20524;-66
2021/01/09 02:51:26;;;;;;;12.33;6.57;;;2.60;99.90;;;;;;5057849;28;20456;-67
2021/01/09 02:53:52;;;;;;;8.50;4.30;;;2.50;99.90;;;;;;5078347;28;20279;-67
2021/01/09 02:56:18;;;;;;;10.33;5.30;;;2.50;99.90;;;;;;5078140;28;20237;-67
2021/01/09 02:58:43;;;;;;;8.53;4.73;;;2.50;99.90;;;;;;5061505;28;20251;-67
2021/01/09 03:01:09;;;;;;;12.97;5.97;;;2.50;99.90;;;;;;5078631;28;20228;-67
2021/01/09 03:03:34;;;;;;;13.57;6.20;;;2.40;99.90;;;;;;5062202;28;20274;-67
2021/01/09 03:06:00;;;;;;;7.43;2.70;;;2.40;99.90;;;;;;5077490;28;20225;-69
2021/01/09 03:08:26;;;;;;;14.90;5.57;;;2.40;99.90;;;;;;5064917;28;20276;-69
2021/01/09 03:10:51;;;;;;;9.70;6.17;;;2.40;99.90;;;;;;5094901;28;20300;-67
2021/01/09 03:13:17;;;;;;;8.77;4.47;;;2.50;99.90;;;;;;5091386;28;20217;-69
2021/01/09 03:15:43;;;;;;;9.93;5.23;;;2.50;99.90;;;;;;5077995;28;20225;-70
2021/01/09 03:18:09;;;;;;;11.60;5.97;;;2.50;99.90;;;;;;5078478;28;20300;-69
2021/01/09 03:20:34;;;;;;;7.77;4.17;;;2.50;99.90;;;;;;5078162;28;20348;-70
2021/01/09 03:23:00;;;;;;;11.77;6.13;;;2.50;99.90;;;;;;5076032;28;20225;-67
2021/01/09 03:25:25;;;;;;;12.47;6.90;;;2.50;99.90;;;;;;5073903;28;20225;-68
2021/01/09 03:27:51;;;;;;;10.80;5.00;;;2.50;99.90;;;;;;5059245;28;20229;-68
2021/01/09 03:30:17;;;;;;;8.13;4.97;;;2.50;99.90;;;;;;5075629;28;20224;-67
2021/01/09 03:32:42;;;;;;;13.10;5.57;;;2.60;99.90;;;;;;5111588;28;20223;-67
2021/01/09 03:35:08;;;;;;;11.57;5.63;;;2.50;99.90;;;;;;5095259;28;20482;-67
2021/01/09 03:37:34;;;;;;;14.70;7.13;;;2.50;99.90;;;;;;5090334;28;20324;-67
2021/01/09 03:40:00;;;;;;;13.23;5.93;;;2.50;99.90;;;;;;5077288;28;20218;-69
2021/01/09 03:42:25;;;;;;;8.50;4.77;;;2.50;99.90;;;;;;5068105;28;20280;-68
2021/01/09 03:44:51;;;;;;;14.63;6.10;;;2.50;99.90;;;;;;5077109;28;20223;-67
2021/01/09 03:47:17;;;;;;;13.30;6.10;;;2.50;99.90;;;;;;5073857;28;20305;-68
2021/01/09 03:49:42;;;;;;;13.40;7.67;;;2.50;99.90;;;;;;5054252;28;20244;-69
2021/01/09 03:52:08;;;;;;;13.30;6.17;;;2.60;99.90;;;;;;5087142;28;20240;-67
2021/01/09 03:54:34;;;;;;;17.10;6.57;;;2.50;99.90;;;;;;5076780;28;20698;-68
2021/01/09 03:56:59;;;;;;;8.20;3.60;;;2.50;99.90;;;;;;5068876;28;20235;-67
2021/01/09 03:59:25;;;;;;;12.70;6.80;;;2.40;99.90;;;;;;5072523;28;20248;-68
2021/01/09 04:01:50;;;;;;;14.47;6.10;;;2.40;99.90;;;;;;5068574;28;20227;-67
2021/01/09 04:04:16;;;;;;;13.10;7.60;;;2.50;99.90;;;;;;5087345;28;20238;-67
2021/01/09 04:06:42;;;;;;;27.47;11.60;;;2.50;99.90;;;;;;5077120;28;20226;-68
2021/01/09 04:09:07;;;;;;;8.13;4.30;;;2.50;99.90;;;;;;5073417;28;20219;-67
2021/01/09 04:11:33;;;;;;;12.30;7.20;;;2.50;99.90;;;;;;5074768;28;20206;-69
2021/01/09 04:13:59;;;;;;;11.90;6.10;;;2.50;99.90;;;;;;5064512;28;20226;-68
2021/01/09 04:16:25;;;;;;;8.80;4.80;;;2.60;99.90;;;;;;5076553;28;20222;-68
2021/01/09 04:18:50;;;;;;;13.70;6.33;;;2.60;99.90;;;;;;5081387;28;20270;-70
2021/01/09 04:21:16;;;;;;;10.33;5.77;;;2.60;99.90;;;;;;5076151;28;20852;-69
2021/01/09 04:23:42;;;;;;;13.90;5.53;;;2.60;99.90;;;;;;5074629;28;20639;-70
2021/01/09 04:26:15;;;;;;;14.50;6.73;;;2.60;99.90;;;;;;5079683;28;20225;-68
2021/01/09 04:28:41;;;;;;;11.20;5.70;;;2.60;99.90;;;;;;5075595;28;20227;-69
2021/01/09 04:31:07;;;;;;;13.50;6.00;;;2.60;99.90;;;;;;5064531;28;20463;-68
2021/01/09 04:33:33;;;;;;;12.10;5.63;;;2.60;99.90;;;;;;5095692;28;20451;-68
2021/01/09 04:35:59;;;;;;;8.77;5.77;;;2.70;99.90;;;;;;5075810;28;20510;-70
2021/01/09 04:38:24;;;;;;;13.53;5.60;;;2.70;99.90;;;;;;5095795;28;20219;-69
2021/01/09 04:40:50;;;;;;;10.70;6.50;;;2.70;99.90;;;;;;5094232;28;20218;-69
2021/01/09 04:43:18;;;;;;;15.20;6.37;;;2.60;99.90;;;;;;5090811;28;20226;-68
2021/01/09 04:45:47;;;;;;;13.93;7.20;;;2.60;99.90;;;;;;5060945;28;20229;-70
2021/01/09 04:48:13;;;;;;;9.97;4.60;;;2.60;99.90;;;;;;5077361;28;20455;-69
2021/01/09 04:50:40;;;;;;;9.10;5.07;;;2.70;99.90;;;;;;5065648;28;20512;-69
2021/01/09 04:53:07;;;;;;;13.30;7.07;;;2.60;99.90;;;;;;5060798;28;20444;-69
2021/01/09 04:55:35;;;;;;;13.47;6.00;;;2.60;99.90;;;;;;5062014;28;20458;-69
2021/01/09 04:58:03;;;;;;;13.17;6.87;;;2.60;99.90;;;;;;5078686;28;20455;-69
2021/01/09 05:00:29;;;;;;;14.30;6.83;;;2.60;99.90;;;;;;5076705;28;20537;-67
2021/01/09 05:02:56;;;;;;;12.00;6.53;;;2.60;99.90;;;;;;5084465;28;20458;-69
2021/01/09 05:05:22;;;;;;;12.20;6.23;;;2.70;99.90;;;;;;5097576;28;20470;-68
2021/01/09 05:07:48;;;;;;;10.60;5.50;;;2.70;99.90;;;;;;5062841;28;20456;-68
2021/01/09 05:10:13;;;;;;;12.70;6.03;;;2.70;99.90;;;;;;5064412;28;20222;-70
2021/01/09 05:12:40;;;;;;;13.87;5.53;;;2.70;99.90;;;;;;5063324;28;20624;-69
2021/01/09 05:15:07;;;;;;;11.50;5.87;;;2.70;99.90;;;;;;5050508;28;20290;-66
2021/01/09 05:17:38;;;;;;;10.30;5.57;;;2.70;99.90;;;;;;5116591;27;20454;-69
2021/01/09 05:20:05;;;;;;;10.00;5.80;;;2.80;99.90;;;;;;5079677;28;20440;-69
2021/01/09 05:22:34;;;;;;;13.60;6.97;;;2.80;99.90;;;;;;5102794;28;20448;-68
2021/01/09 05:25:01;;;;;;;11.73;6.13;;;2.80;99.90;;;;;;5060478;28;20968;-69
2021/01/09 05:27:26;;;;;;;9.70;5.47;;;2.80;99.90;;;;;;5061215;28;20448;-69
2021/01/09 05:30:16;;;;;;;12.60;5.53;;;2.80;99.90;;;;;;5090634;27;20539;-69
2021/01/09 05:32:43;;;;;;;11.87;7.10;;;2.80;99.90;;;;;;5094941;28;20309;-70
2021/01/09 05:35:15;;;;;;;15.07;7.17;;;2.70;99.90;;;;;;5079102;28;20476;-70
2021/01/09 05:37:40;;;;;;;14.03;6.77;;;2.70;99.90;;;;;;5063889;28;20461;-70
2021/01/09 05:40:07;;;;;;;10.83;5.90;;;2.70;99.90;;;;;;5096759;28;20520;-69
2021/01/09 05:42:34;;;;;;;10.77;5.57;;;2.70;99.90;;;;;;5088443;28;20243;-67
2021/01/09 05:45:00;;;;;;;12.20;7.50;;;2.80;99.90;;;;;;5088061;28;20454;-69
2021/01/09 05:47:27;;;;;;;11.63;7.07;;;2.80;99.90;;;;;;5097106;28;20447;-69
2021/01/09 05:49:59;;;;;;;11.07;6.47;;;2.80;99.90;;;;;;5074725;27;20523;-70
2021/01/09 05:52:26;;;;;;;11.13;6.03;;;2.80;99.90;;;;;;5095335;28;20993;-69
2021/01/09 05:54:58;;;;;;;14.60;6.37;;;2.80;99.90;;;;;;5068463;28;20460;-68
2021/01/09 05:57:29;;;;;;;15.60;6.57;;;2.80;99.90;;;;;;5079446;28;20472;-69
2021/01/09 05:59:59;;;;;;;9.10;5.37;;;2.80;99.90;;;;;;5077024;28;20450;-70
2021/01/09 06:02:26;;;;;;;13.70;6.43;;;2.80;99.90;;;;;;5075233;28;20448;-69
2021/01/09 06:05:06;;;;;;;16.70;8.07;;;2.80;99.90;;;;;;5075385;27;20998;-69
2021/01/09 06:07:34;;;;;;;12.50;6.30;;;2.80;99.90;;;;;;5117993;27;20476;-68
2021/01/09 06:10:12;;;;;;;15.67;6.70;;;2.80;99.90;;;;;;5083220;27;20443;-68
2021/01/09 06:12:49;;;;;;;16.37;7.97;;;2.80;99.90;;;;;;5100806;27;20525;-70
2021/01/09 06:15:23;;;;;;;10.80;6.60;;;2.80;99.90;;;;;;5077660;27;20478;-69
2021/01/09 06:17:50;;;;;;;16.27;8.10;;;2.80;99.90;;;;;;5109544;28;20878;-67
2021/01/09 06:20:16;;;;;;;15.53;7.73;;;2.80;99.90;;;;;;5093293;28;20463;-69
2021/01/09 06:22:43;;;;;;;17.60;7.60;;;2.70;99.90;;;;;;5079407;28;20466;-70
2021/01/09 06:25:11;;;;;;;11.80;6.23;;;2.80;99.90;;;;;;5071084;28;20442;-69
2021/01/09 06:27:40;;;;;;;12.70;6.93;;;2.70;99.90;;;;;;5110468;27;20523;-69
2021/01/09 06:30:09;;;;;;;11.37;7.10;;;2.80;99.90;;;;;;5116955;28;20443;-68
2021/01/09 06:32:41;;;;;;;13.00;6.60;;;2.80;99.90;;;;;;5099741;28;21263;-70
2021/01/09 06:35:08;;;;;;;12.70;5.77;;;2.80;99.90;;;;;;5070577;28;20477;-70
2021/01/09 06:37:35;;;;;;;11.57;6.37;;;2.80;99.90;;;;;;5062559;28;20483;-69
2021/01/09 06:40:01;;;;;;;12.40;6.83;;;2.80;99.90;;;;;;5076285;28;20447;-70
2021/01/09 06:42:29;;;;;;;14.47;6.53;;;2.80;99.90;;;;;;5057134;28;20478;-68
2021/01/09 06:44:55;;;;;;;13.50;7.00;;;2.80;99.90;;;;;;5058890;28;20535;-68
2021/01/09 06:47:26;;;;;;;15.03;6.10;;;2.80;99.90;;;;;;5061497;28;20481;-68
2021/01/09 06:49:52;;;;;;;13.27;5.67;;;2.80;99.90;;;;;;5099086;28;20219;-68
2021/01/09 06:52:18;;;;;;;13.77;6.00;;;2.80;99.90;;;;;;5094495;28;20464;-70
2021/01/09 06:54:47;;;;;;;7.50;4.30;;;2.80;99.90;;;;;;5071512;28;20454;-69
2021/01/09 06:57:17;;;;;;;9.03;4.80;;;2.80;99.90;;;;;;5079608;28;20305;-69
2021/01/09 06:59:44;;;;;;;11.83;5.37;;;2.80;99.90;;;;;;5095483;28;20982;-67
2021/01/09 07:02:28;;;;;;;8.90;5.00;;;2.80;99.90;;;;;;5104717;28;20480;-69
2021/01/09 07:04:59;;;;;;;11.20;5.47;;;2.80;99.90;;;;;;5116458;28;20462;-69
2021/01/09 07:07:30;;;;;;;6.60;4.13;;;2.80;99.90;;;;;;5088267;28;20900;-70
2021/01/09 07:10:15;;;;;;;8.57;5.07;;;2.80;99.90;;;;;;5086259;28;20443;-69
2021/01/09 07:13:03;;;;;;;7.60;4.00;;;2.80;99.90;;;;;;5107041;28;20482;-69
2021/01/09 07:15:31;;;;;;;10.30;4.97;;;2.80;99.90;;;;;;5072582;28;20468;-68
2021/01/09 07:18:03;;;;;;;8.20;4.33;;;2.80;99.90;;;;;;5096656;28;20455;-68
2021/01/09 07:20:41;;;;;;;8.60;4.73;;;2.80;99.90;;;;;;5079488;28;20470;-69
2021/01/09 07:23:09;;;;;;;7.50;4.20;;;2.70;99.90;;;;;;5076294;28;21000;-69
2021/01/09 07:25:37;;;;;;;9.03;4.30;;;2.80;99.90;;;;;;5087737;28;20463;-68
2021/01/09 07:28:15;;;;;;;10.37;4.70;;;2.70;99.90;;;;;;5096011;28;20866;-68
2021/01/09 07:30:41;;;;;;;7.43;3.83;;;2.70;99.90;;;;;;5097483;27;20467;-69
2021/01/09 07:33:09;;;;;;;8.83;4.27;;;2.70;99.90;;;;;;5080327;28;20484;-68
2021/01/09 07:35:48;;;;;;;8.00;4.30;;;2.70;99.90;;;;;;5093446;28;20559;-67
2021/01/09 07:38:14;;;;;;;11.23;4.43;;;2.70;99.90;;;;;;5095264;28;20442;-68
2021/01/09 07:40:46;;;;;;;6.97;4.43;;;2.70;99.90;;;;;;5065354;27;20463;-67
2021/01/09 07:43:33;;;;;;;11.53;5.30;;;2.70;99.90;;;;;;5104320;27;20215;-68
2021/01/09 07:46:00;;;;;;;8.23;3.77;;;2.70;99.90;;;;;;5098533;27;20463;-67
2021/01/09 07:48:32;;;;;;;6.13;4.40;;;2.70;99.90;;;;;;5096684;27;20447;-68
2021/01/09 07:50:57;;;;;;;8.73;4.50;;;2.80;99.90;;;;;;5097898;27;20446;-68
2021/01/09 07:53:27;;;;;;;8.77;4.03;;;2.70;99.90;;;;;;5098813;27;20447;-68
2021/01/09 07:55:53;;;;;;;8.50;4.23;;;2.70;99.90;;;;;;5115276;27;21059;-67
2021/01/09 07:58:42;;;;;;;5.90;4.10;;;2.80;99.90;;;;;;5105274;27;20451;-67
2021/01/09 08:01:08;;;;;;;8.70;3.60;;;2.80;99.90;;;;;;5080761;28;20459;-68
2021/01/09 08:03:34;;;;;;;9.20;5.00;;;2.80;99.90;;;;;;5061592;28;20448;-68
2021/01/09 08:06:00;;;;;;;10.23;4.37;;;2.80;99.90;;;;;;5075709;28;20238;-67
2021/01/09 08:08:25;;;;;;;6.40;3.67;;;2.80;99.90;;;;;;5094220;28;20486;-67
2021/01/09 08:10:51;;;;;;;10.33;4.27;;;2.70;99.90;;;;;;5107272;27;20221;-67
2021/01/09 08:13:17;;;;;;;7.50;4.33;;;2.70;99.90;;;;;;5098312;27;20217;-67
2021/01/09 08:15:45;;;;;;;8.90;5.17;;;2.70;99.90;;;;;;5093920;28;20221;-67
2021/01/09 08:18:11;;;;;;;12.40;4.97;;;2.70;99.90;;;;;;5069032;28;20226;-67
2021/01/09 08:20:36;;;;;;;7.73;5.00;;;2.70;99.90;;;;;;5054063;28;20449;-69
2021/01/09 08:23:04;;;;;;;10.93;4.70;;;2.70;99.90;;;;;;5076939;28;20452;-68
2021/01/09 08:25:41;;;;;;;7.73;4.77;;;2.60;99.90;;;;;;5075224;28;20219;-67
2021/01/09 08:28:07;;;;;;;8.10;5.03;;;2.70;99.90;;;;;;5070280;28;20455;-67
2021/01/09 08:30:35;;;;;;;8.63;4.47;;;2.70;99.90;;;;;;5094481;28;20466;-68
2021/01/09 08:33:02;;;;;;;9.00;4.60;;;2.70;99.90;;;;;;5073096;28;20644;-68
2021/01/09 08:35:29;;;;;;;10.23;5.23;;;2.60;99.90;;;;;;5077464;28;20458;-68
2021/01/09 08:37:54;;;;;;;9.77;4.93;;;2.60;99.90;;;;;;5085484;28;20471;-68
2021/01/09 08:40:23;;;;;;;6.70;4.30;;;2.70;99.90;;;;;;5068508;28;20488;-68
2021/01/09 08:43:09;;;;;;;8.30;4.87;;;2.70;99.90;;;;;;5075031;28;20231;-68
2021/01/09 08:45:43;;;;;;;8.07;5.20;;;2.70;99.90;;;;;;5091194;28;20465;-69
2021/01/09 08:48:34;;;;;;;8.30;3.67;;;2.70;99.90;;;;;;5099807;28;20972;-69
2021/01/09 08:51:11;;;;;;;8.07;4.57;;;2.70;99.90;;;;;;5094318;28;20471;-68
2021/01/09 08:54:07;;;;;;;7.73;4.40;;;2.70;99.90;;;;;;5091548;28;20457;-67
2021/01/09 08:56:35;;;;;;;7.50;4.27;;;2.80;99.90;;;;;;5082758;28;20477;-69
2021/01/09 08:59:02;;;;;;;9.23;4.20;;;2.80;99.90;;;;;;5107779;27;20951;-68
2021/01/09 09:01:48;;;;;;;7.60;4.57;;;2.80;99.90;;;;;;5085231;28;20448;-68
2021/01/09 09:04:16;;;;;;;10.03;4.10;;;2.80;99.90;;;;;;5094964;27;20991;-68
2021/01/09 09:06:43;;;;;;;9.13;4.97;;;2.80;99.90;;;;;;5114305;27;20454;-68
2021/01/09 09:09:14;;;;;;;10.33;5.23;;;2.80;99.90;;;;;;5092130;28;20819;-68
2021/01/09 09:11:41;;;;;;;8.60;4.50;;;2.80;99.90;;;;;;5114283;27;20456;-68
2021/01/09 09:14:12;;;;;;;11.00;4.97;;;2.80;99.90;;;;;;5077344;27;20472;-68
2021/01/09 09:16:38;;;;;;;4.20;2.90;;;2.80;99.90;;;;;;5083198;28;20459;-68
2021/01/09 09:19:18;;;;;;;8.50;3.27;;;2.80;99.90;;;;;;5071963;28;20461;-67
2021/01/09 09:21:49;;;;;;;10.80;5.50;;;2.70;99.90;;;;;;5075469;28;20451;-68
2021/01/09 09:24:16;;;;;;;7.90;4.13;;;2.70;99.90;;;;;;5110359;28;20452;-68
2021/01/09 09:26:43;;;;;;;7.03;3.87;;;2.70;99.90;;;;;;5041415;28;20460;-69
2021/01/09 09:29:09;;;;;;;9.03;4.23;;;2.80;99.90;;;;;;5107215;28;20450;-68
2021/01/09 09:31:46;;;;;;;8.70;5.30;;;2.80;99.90;;;;;;5080366;28;20470;-68
2021/01/09 09:34:14;;;;;;;7.27;4.60;;;2.80;99.90;;;;;;5065136;27;20538;-68
2021/01/09 09:36:48;;;;;;;7.97;3.30;;;2.80;99.90;;;;;;5093779;27;20478;-68
2021/01/09 09:39:22;;;;;;;9.27;4.47;;;2.80;99.90;;;;;;5104074;28;20480;-68
2021/01/09 09:41:48;;;;;;;7.70;4.43;;;2.80;99.90;;;;;;5071292;28;20450;-68
2021/01/09 09:44:14;;;;;;;7.60;4.13;;;2.80;99.90;;;;;;5102558;28;20455;-68
2021/01/09 09:46:41;;;;;;;11.93;5.10;;;2.80;99.90;;;;;;5071442;28;20453;-67
2021/01/09 09:49:07;;;;;;;6.30;3.50;;;2.80;99.90;;;;;;5059482;28;20239;-68
2021/01/09 09:51:35;;;;;;;4.60;2.53;;;2.80;99.90;;;;;;5063588;28;20462;-68
2021/01/09 09:54:02;;;;;;;6.03;3.93;;;2.90;99.90;;;;;;5073337;28;20630;-68
2021/01/09 09:56:40;;;;;;;10.10;4.03;;;2.90;99.90;;;;;;5086328;28;20460;-68
2021/01/09 09:59:08;;;;;;;4.93;3.47;;;2.90;99.90;;;;;;5077945;28;20506;-71
2021/01/09 10:01:34;;;;;;;10.07;5.13;;;2.90;99.90;;;;;;5087723;28;20468;-70
2021/01/09 10:04:01;;;;;;;5.47;2.97;;;3.00;99.90;;;;;;5098664;27;20534;-68
2021/01/09 10:06:40;;;;;;;4.10;2.80;;;3.00;99.90;;;;;;5077784;28;20469;-68
2021/01/09 10:09:15;;;;;;;5.03;2.80;;;3.00;99.90;;;;;;5099508;27;20540;-67
2021/01/09 10:11:41;;;;;;;7.80;4.13;;;3.10;99.90;;;;;;5082615;28;20471;-68
2021/01/09 10:14:07;;;;;;;5.00;3.10;;;3.20;99.90;;;;;;5070252;28;20843;-67
2021/01/09 10:16:33;;;;;;;5.83;2.23;;;3.20;99.90;;;;;;5079064;27;20467;-67
2021/01/09 10:18:59;;;;;;;6.23;2.97;;;3.10;99.90;;;;;;5115144;27;20227;-68
2021/01/09 10:21:32;;;;;;;4.40;2.97;;;3.10;99.90;;;;;;5073466;28;20295;-68
2021/01/09 10:23:58;;;;;;;5.37;3.00;;;3.20;99.90;;;;;;5070029;28;20230;-68
2021/01/09 10:26:28;;;;;;;7.90;3.20;;;3.20;99.90;;;;;;5085154;28;20472;-68
2021/01/09 10:28:54;;;;;;;5.70;4.47;;;3.20;99.90;;;;;;5069265;28;20500;-67
2021/01/09 10:31:34;;;;;;;7.43;3.37;;;3.20;99.90;;;;;;5072108;28;20987;-67
2021/01/09 10:34:01;;;;;;;5.67;4.57;;;3.30;99.90;;;;;;5067809;28;20556;-68
2021/01/09 10:36:31;;;;;;;8.20;4.10;;;3.20;99.90;;;;;;5065077;28;21236;-68
2021/01/09 10:38:57;;;;;;;8.30;5.37;;;3.30;99.90;;;;;;5071471;28;20460;-68
2021/01/09 10:41:24;;;;;;;8.90;4.30;;;3.40;99.90;;;;;;5101211;28;21264;-68
2021/01/09 10:43:51;;;;;;;10.57;5.57;;;3.40;99.90;;;;;;5061308;28;20468;-68
2021/01/09 10:46:24;;;;;;;5.57;3.43;;;3.40;99.90;;;;;;5086531;28;20461;-68
2021/01/09 10:48:50;;;;;;;9.10;4.30;;;3.50;99.90;;;;;;5070773;28;20565;-68
2021/01/09 10:51:17;;;;;;;7.70;4.47;;;3.50;99.90;;;;;;5080165;28;20535;-68
2021/01/09 10:53:43;;;;;;;7.67;4.30;;;3.50;99.90;;;;;;5097464;28;20475;-68
2021/01/09 10:56:09;;;;;;;12.10;5.30;;;3.60;99.90;;;;;;5100129;28;20460;-68
2021/01/09 10:58:35;;;;;;;9.10;4.40;;;3.70;99.90;;;;;;5104918;28;20608;-68
2021/01/09 11:01:01;;;;;;;9.27;5.00;;;3.80;99.90;;;;;;5078056;28;20566;-68
2021/01/09 11:03:26;;;;;;;6.30;3.77;;;3.90;99.90;;;;;;5079596;28;20459;-69
2021/01/09 11:05:52;;;;;;;11.97;6.50;;;3.90;99.90;;;;;;5069846;28;20220;-68
2021/01/09 11:08:18;;;;;;;8.80;5.00;;;3.90;99.90;;;;;;5076865;28;20208;-68
2021/01/09 11:10:44;;;;;;;6.70;3.90;;;3.90;99.90;;;;;;5086732;27;20266;-68
2021/01/09 11:13:12;;;;;;;11.53;4.53;;;3.90;99.90;;;;;;5109797;28;20440;-68
2021/01/09 11:15:46;;;;;;;5.10;4.23;;;3.90;99.90;;;;;;5075843;28;20218;-71
2021/01/09 11:18:12;;;;;;;7.20;3.67;;;4.00;99.90;;;;;;5104231;27;20475;-71
2021/01/09 11:20:38;;;;;;;5.60;4.70;;;4.00;99.90;;;;;;5077784;28;20878;-70
2021/01/09 11:23:05;;;;;;;6.97;3.60;;;4.00;99.90;;;;;;5085926;28;20444;-70
2021/01/09 11:25:30;;;;;;;6.33;3.80;;;4.00;99.90;;;;;;5090628;28;20465;-70
2021/01/09 11:27:56;;;;;;;4.90;3.33;;;4.10;99.90;;;;;;5057259;28;20468;-70
2021/01/09 11:30:22;;;;;;;9.13;4.97;;;4.00;99.90;;;;;;5072455;28;20229;-70
2021/01/09 11:32:47;;;;;;;7.60;3.97;;;3.90;99.90;;;;;;5058371;28;20255;-70
2021/01/09 11:35:13;;;;;;;7.83;4.13;;;4.10;99.90;;;;;;5060573;28;20215;-71
2021/01/09 11:37:39;;;;;;;8.30;4.10;;;4.10;99.90;;;;;;5056773;28;20215;-70
2021/01/09 11:40:05;;;;;;;9.87;3.53;;;4.10;99.90;;;;;;5071502;28;20222;-70
2021/01/09 11:42:31;;;;;;;5.70;4.30;;;4.10;99.90;;;;;;5058668;28;20302;-71
2021/01/09 11:44:57;;;;;;;6.97;3.80;;;4.10;99.90;;;;;;5093168;27;21827;-70
2021/01/09 11:47:22;;;;;;;10.23;4.20;;;4.00;99.90;;;;;;5072262;28;20229;-70
2021/01/09 11:49:48;;;;;;;6.70;3.87;;;4.20;99.90;;;;;;5109166;27;20725;-69
2021/01/09 11:52:14;;;;;;;6.30;3.43;;;4.20;99.90;;;;;;5059462;27;20214;-70
2021/01/09 11:54:39;;;;;;;6.30;4.67;;;4.20;99.90;;;;;;5090630;27;20210;-70
2021/01/09 11:57:05;;;;;;;7.80;3.30;;;4.20;99.90;;;;;;5078991;28;20230;-70
2021/01/09 11:59:31;;;;;;;7.20;4.23;;;4.10;99.90;;;;;;5074524;28;20218;-70
2021/01/09 12:01:57;;;;;;;5.77;3.70;;;4.00;99.90;;;;;;5103568;28;20309;-71
2021/01/09 12:04:23;;;;;;;5.93;3.20;;;4.00;99.90;;;;;;5086156;28;20591;-70
2021/01/09 12:06:49;;;;;;;5.57;2.97;;;4.10;99.90;;;;;;5085484;28;21011;-69
2021/01/09 12:09:15;;;;;;;3.50;2.57;;;4.00;99.90;;;;;;5069715;28;20211;-70
2021/01/09 12:11:41;;;;;;;6.00;3.50;;;4.00;99.90;;;;;;5086646;28;20227;-69
2021/01/09 12:14:07;;;;;;;7.43;3.23;;;4.00;99.90;;;;;;5077953;28;20861;-69
2021/01/09 12:16:34;;;;;;;6.20;3.13;;;4.10;99.90;;;;;;5073871;28;20243;-69
2021/01/09 12:19:01;;;;;;;5.67;3.60;;;4.00;99.90;;;;;;5058270;28;20448;-69
2021/01/09 12:21:28;;;;;;;8.87;3.70;;;4.10;99.90;;;;;;5066862;28;20555;-72
2021/01/09 12:23:56;;;;;;;6.63;3.43;;;4.00;99.90;;;;;;5059168;28;20464;-70
2021/01/09 12:26:22;;;;;;;5.43;2.77;;;4.00;99.90;;;;;;5072943;28;21048;-71
2021/01/09 12:28:48;;;;;;;5.97;4.00;;;4.00;99.90;;;;;;5093539;28;20461;-72
2021/01/09 12:31:13;;;;;;;5.10;3.60;;;4.00;99.90;;;;;;5061179;28;20460;-72
2021/01/09 12:33:40;;;;;;;6.30;3.93;;;4.00;99.90;;;;;;5080327;28;20227;-71
2021/01/09 12:36:08;;;;;;;3.63;3.33;;;4.00;99.90;;;;;;5078619;28;20231;-72
2021/01/09 12:38:34;;;;;;;4.93;3.20;;;4.10;99.90;;;;;;5075181;28;20537;-72
2021/01/09 12:41:00;;;;;;;5.87;2.70;;;4.00;99.90;;;;;;5079652;28;20540;-71
2021/01/09 12:43:26;;;;;;;4.43;2.70;;;4.00;99.90;;;;;;5070416;27;20505;-71
2021/01/09 12:45:54;;;;;;;6.00;3.43;;;4.10;99.90;;;;;;5106182;28;20240;-72
2021/01/09 12:48:23;;;;;;;5.03;3.20;;;4.10;99.90;;;;;;5115060;28;20225;-72
2021/01/09 12:50:50;;;;;;;6.10;3.27;;;4.10;99.90;;;;;;5063665;27;20506;-71
2021/01/09 12:53:16;;;;;;;3.40;2.40;;;4.00;99.90;;;;;;5072352;27;20452;-70
2021/01/09 12:55:41;;;;;;;1.77;1.40;;;4.00;99.90;;;;;;5099029;27;20515;-71
2021/01/09 12:58:07;;;;;;;3.80;2.10;;;3.80;99.90;;;;;;5076514;28;20279;-70